PWSweather.com
Personal Weather Stations
Station Observations
SEVANL01
SevillaES 41004

SevillaES 41004

Lat: 37.383633, Lon: -5.985787

Elevation: 19.685

Station Type: Davis Vantage Pro2

Latest ConditionsUpdated 8:00:01 AM GMT+01:01 Saturday, Nov 29, 2014
Currently Today's Max Today's Min Today's Average
Temperature 52.3°F11.3°C 55.6°F13.1°C 52.3°F11.3°C 53.6°F12.0°C
Dew Point 48.9°F9.4°C 51.8°F11.0°C 48.9°F9.4°C 50.6°F10.3°C
Winds 3.0 mph NNE4.8 kmh NNE 3.0 mph NNE4.8 kmh NNE - 1.1 mph 1.8 kmh
Wind Gusts 9.0 mph14.5 kmh 10.0 mph16.1 kmh - -
Humidity 88% 91% 87% 89%
Pressure 29.29 in991.9 mb 29.29 in991.9 mb 29.22 in989.5 mb -
Hour Temp Dew Point Humidity Winds Wind Gusts Pressure Precip Precip Rate Daily Precip Total
08:00 AM 52.3°F11.3°C 48.9°F9.4°C 88% 3.0 mph NNE4.8 kmh NNE 9.0 mph14.5 kmh 29.29 in991.9 mb 0.00 in0.0 mm 0.00 in/hr0.0 mm/hr 0.03 in0.8 mm
07:40 AM 52.5°F11.4°C 49.1°F9.5°C 88% 2.0 mph NNE3.2 kmh NNE 5.0 mph8.0 kmh 29.28 in991.5 mb 0.00 in0.0 mm 0.00 in/hr0.0 mm/hr 0.03 in0.8 mm
07:20 AM 52.5°F11.4°C 49.4°F9.7°C 89% 1.0 mph NE1.6 kmh NE 6.0 mph9.7 kmh 29.27 in991.2 mb 0.00 in0.0 mm 0.00 in/hr0.0 mm/hr 0.03 in0.8 mm
07:00 AM 52.5°F11.4°C 49.4°F9.7°C 89% Calm Calm 4.0 mph6.4 kmh 29.27 in991.2 mb 0.00 in0.0 mm 0.00 in/hr0.0 mm/hr 0.03 in0.8 mm
06:40 AM 52.7°F11.5°C 49.5°F9.7°C 89% Calm Calm -- 29.26 in990.9 mb 0.00 in0.0 mm 0.00 in/hr0.0 mm/hr 0.03 in0.8 mm
06:20 AM 52.9°F11.6°C 49.7°F9.8°C 89% Calm Calm 4.0 mph6.4 kmh 29.25 in990.5 mb 0.00 in0.0 mm 0.00 in/hr0.0 mm/hr 0.03 in0.8 mm
06:00 AM 52.9°F11.6°C 50.0°F10.0°C 90% Calm Calm -- 29.25 in990.5 mb 0.00 in0.0 mm 0.00 in/hr0.0 mm/hr 0.03 in0.8 mm
05:40 AM 53.1°F11.7°C 49.9°F9.9°C 89% Calm Calm 1.0 mph1.6 kmh 29.24 in990.2 mb 0.00 in0.0 mm 0.00 in/hr0.0 mm/hr 0.03 in0.8 mm
05:20 AM 53.1°F11.7°C 50.2°F10.1°C 90% Calm Calm 6.0 mph9.7 kmh 29.23 in989.8 mb 0.00 in0.0 mm 0.00 in/hr0.0 mm/hr 0.03 in0.8 mm
05:00 AM 53.2°F11.8°C 50.4°F10.2°C 90% 1.0 mph NE1.6 kmh NE 5.0 mph8.0 kmh 29.23 in989.8 mb 0.00 in0.0 mm 0.00 in/hr0.0 mm/hr 0.03 in0.8 mm
04:40 AM 53.2°F11.8°C 50.4°F10.2°C 90% 2.0 mph NE3.2 kmh NE 10.0 mph16.1 kmh 29.22 in989.5 mb 0.00 in0.0 mm 0.00 in/hr0.0 mm/hr 0.03 in0.8 mm
04:20 AM 53.2°F11.8°C 50.4°F10.2°C 90% 3.0 mph NE4.8 kmh NE 9.0 mph14.5 kmh 29.22 in989.5 mb 0.00 in0.0 mm 0.00 in/hr0.0 mm/hr 0.03 in0.8 mm
04:00 AM 53.4°F11.9°C 50.6°F10.3°C 90% 2.0 mph NE3.2 kmh NE 9.0 mph14.5 kmh 29.23 in989.8 mb 0.00 in0.0 mm 0.00 in/hr0.0 mm/hr 0.03 in0.8 mm
03:40 AM 53.4°F11.9°C 50.9°F10.5°C 91% 2.0 mph NE3.2 kmh NE 9.0 mph14.5 kmh 29.23 in989.8 mb 0.00 in0.0 mm 0.00 in/hr0.0 mm/hr 0.03 in0.8 mm
03:20 AM 53.4°F11.9°C 50.9°F10.5°C 91% 3.0 mph NE4.8 kmh NE 9.0 mph14.5 kmh 29.23 in989.8 mb 0.00 in0.0 mm 0.00 in/hr0.0 mm/hr 0.03 in0.8 mm
03:00 AM 53.8°F12.1°C 51.2°F10.7°C 91% Calm Calm 6.0 mph9.7 kmh 29.22 in989.5 mb 0.00 in0.0 mm 0.00 in/hr0.0 mm/hr 0.03 in0.8 mm
02:40 AM 54.0°F12.2°C 51.4°F10.8°C 91% 2.0 mph NE3.2 kmh NE 7.0 mph11.3 kmh 29.22 in989.5 mb 0.00 in0.0 mm 0.00 in/hr0.0 mm/hr 0.03 in0.8 mm
02:20 AM 54.1°F12.3°C 51.6°F10.9°C 91% 2.0 mph NE3.2 kmh NE 9.0 mph14.5 kmh 29.22 in989.5 mb 0.00 in0.0 mm 0.00 in/hr0.0 mm/hr 0.03 in0.8 mm
02:00 AM 54.1°F12.3°C 51.3°F10.7°C 90% 2.0 mph NE3.2 kmh NE 6.0 mph9.7 kmh 29.22 in989.5 mb 0.00 in0.0 mm 0.00 in/hr0.0 mm/hr 0.03 in0.8 mm
01:40 AM 54.1°F12.3°C 51.3°F10.7°C 90% 1.0 mph NE1.6 kmh NE 7.0 mph11.3 kmh 29.22 in989.5 mb 0.00 in0.0 mm 0.00 in/hr0.0 mm/hr 0.03 in0.8 mm
01:20 AM 54.5°F12.5°C 51.6°F10.9°C 90% 1.0 mph NNE1.6 kmh NNE 7.0 mph11.3 kmh 29.22 in989.5 mb 0.00 in0.0 mm 0.00 in/hr0.0 mm/hr 0.03 in0.8 mm
01:00 AM 54.9°F12.7°C 51.7°F10.9°C 89% Calm Calm -- 29.22 in989.5 mb 0.00 in0.0 mm 0.00 in/hr0.0 mm/hr 0.03 in0.8 mm
12:40 AM 55.2°F12.9°C 51.4°F10.8°C 87% Calm Calm -- 29.23 in989.8 mb 0.00 in0.0 mm 0.00 in/hr0.0 mm/hr 0.03 in0.8 mm
12:20 AM 55.6°F13.1°C 51.8°F11.0°C 87% Calm Calm 6.0 mph9.7 kmh 29.22 in989.5 mb 0.02 in0.5 mm 0.00 in/hr0.0 mm/hr 0.03 in0.8 mm
12:00 AM 55.2°F12.9°C 51.4°F10.8°C 87% Calm Calm -- 29.22 in989.5 mb 0.03 in0.8 mm 0.00 in/hr0.0 mm/hr 0.03 in0.8 mm